Time;durP1;ratioP1;P1;durP2;ratioP2;P2;SDS_P1;SDS_P2;PMS_P1;PMS_P2;Temp;Humidity;BMP_temperature;BMP_pressure;BME280_temperature;BME280_humidity;BME280_pressure;Samples;Min_cycle;Max_cycle;Signal;HPM_P1;HPM_P2
2023/12/29 00:01:47;;;;;;;0.80;0.65;;;;;;;13.02;77.42;99661.84;4930272;29;20040;-70
2023/12/29 00:04:13;;;;;;;5.55;0.70;;;;;;;12.93;78.44;99658.84;4929498;29;20039;-70
2023/12/29 00:06:39;;;;;;;1.65;0.70;;;;;;;12.97;79.86;99660.34;4930190;29;20047;-70
2023/12/29 00:09:04;;;;;;;0.70;0.60;;;;;;;12.85;81.95;99658.09;4929061;29;20134;-70
2023/12/29 00:11:30;;;;;;;1.38;0.60;;;;;;;12.71;83.56;99666.28;4931035;29;20163;-70
2023/12/29 00:13:55;;;;;;;1.10;0.70;;;;;;;12.66;85.94;99658.56;4930352;29;20035;-70
2023/12/29 00:16:21;;;;;;;0.60;0.60;;;;;;;12.53;87.00;99654.75;4925185;29;20569;-70
2023/12/29 00:18:46;;;;;;;2.92;0.50;;;;;;;12.54;88.55;99653.63;4915312;29;20044;-70
2023/12/29 00:21:11;;;;;;;1.48;0.60;;;;;;;12.69;88.12;99647.75;4924798;29;20035;-70
2023/12/29 00:23:37;;;;;;;0.55;0.38;;;;;;;12.63;88.21;99638.53;4921727;29;20054;-69
2023/12/29 00:26:03;;;;;;;0.88;0.60;;;;;;;12.52;89.77;99639.72;4914676;29;20043;-70
2023/12/29 00:28:28;;;;;;;0.60;0.50;;;;;;;12.52;90.03;99639.72;4915189;29;20059;-70
2023/12/29 00:30:54;;;;;;;2.15;0.68;;;;;;;12.50;90.01;99636.66;4908364;29;20038;-70
2023/12/29 00:33:19;;;;;;;0.50;0.50;;;;;;;12.48;90.42;99639.75;4914154;29;20050;-70
2023/12/29 00:35:45;;;;;;;1.77;0.43;;;;;;;12.44;90.40;99633.59;4915563;29;20490;-70
2023/12/29 00:38:10;;;;;;;0.52;0.52;;;;;;;12.42;90.34;99622.41;4916246;29;20023;-70
2023/12/29 00:40:36;;;;;;;0.50;0.50;;;;;;;12.26;90.09;99616.69;4918063;29;20028;-70
2023/12/29 00:43:02;;;;;;;0.85;0.82;;;;;;;12.36;90.84;99607.78;4915633;29;21121;-70
2023/12/29 00:45:32;;;;;;;3.63;1.10;;;;;;;12.34;90.83;99596.59;4899479;29;20047;-70
2023/12/29 00:47:59;;;;;;;0.47;0.47;;;;;;;12.12;90.91;99591.66;4913615;29;20047;-69
2023/12/29 00:50:25;;;;;;;1.35;0.80;;;;;;;12.27;90.14;99593.16;4914364;29;20044;-70
2023/12/29 00:52:50;;;;;;;1.42;0.50;;;;;;;12.23;90.34;99590.44;4908622;29;20042;-69
2023/12/29 00:55:16;;;;;;;1.73;0.60;;;;;;;12.31;88.80;99588.53;4913662;29;20028;-70
2023/12/29 00:57:42;;;;;;;1.42;0.60;;;;;;;12.28;88.93;99579.25;4915461;29;20222;-70
2023/12/29 01:00:11;;;;;;;3.03;0.90;;;;;;;12.35;88.38;99581.94;4930925;29;20058;-70
2023/12/29 01:02:36;;;;;;;7.32;0.98;;;;;;;12.34;89.24;99585.81;4914335;29;20487;-70
2023/12/29 01:05:02;;;;;;;2.90;0.80;;;;;;;12.37;88.33;99576.91;4914466;29;20047;-69
2023/12/29 01:07:28;;;;;;;1.90;0.60;;;;;;;12.41;88.15;99574.97;4940382;28;20082;-69
2023/12/29 01:09:53;;;;;;;1.35;0.73;;;;;;;12.42;87.89;99581.91;4893668;29;20541;-69
2023/12/29 01:12:19;;;;;;;1.13;0.82;;;;;;;12.41;87.66;99579.59;4914726;29;20523;-70
2023/12/29 01:14:44;;;;;;;0.55;0.55;;;;;;;12.34;87.29;99566.13;4914226;29;20885;-70
2023/12/29 01:17:09;;;;;;;2.05;1.13;;;;;;;12.39;88.09;99571.88;4909676;29;20055;-69
2023/12/29 01:19:36;;;;;;;1.45;1.10;;;;;;;12.44;87.47;99568.78;4930513;29;20476;-70
2023/12/29 01:22:01;;;;;;;1.95;0.73;;;;;;;12.52;86.96;99575.66;4915640;29;20031;-70
2023/12/29 01:24:27;;;;;;;0.60;0.52;;;;;;;12.47;87.61;99567.22;4900963;29;20031;-70
2023/12/29 01:26:52;;;;;;;0.73;0.50;;;;;;;12.61;86.70;99564.44;4894195;29;20047;-69
2023/12/29 01:29:18;;;;;;;0.73;0.60;;;;;;;12.55;86.17;99571.41;4896529;29;20087;-69
2023/12/29 01:31:44;;;;;;;1.67;0.93;;;;;;;12.49;86.26;99565.66;4918664;29;20040;-69
2023/12/29 01:34:10;;;;;;;4.18;1.27;;;;;;;12.40;87.52;99564.56;4943470;28;20562;-70
2023/12/29 01:36:36;;;;;;;0.40;0.40;;;;;;;12.44;87.50;99565.31;4919173;29;20044;-70
2023/12/29 01:39:02;;;;;;;1.83;0.50;;;;;;;12.43;87.83;99563.75;4917817;29;20070;-70
2023/12/29 01:41:29;;;;;;;1.70;0.75;;;;;;;12.56;88.07;99573.72;4935475;29;20074;-70
2023/12/29 01:44:01;;;;;;;2.50;0.60;;;;;;;12.53;88.39;99574.50;4919214;29;20032;-69
2023/12/29 01:46:29;;;;;;;0.80;0.70;;;;;;;12.55;88.53;99593.03;4915704;29;20074;-70
2023/12/29 01:48:55;;;;;;;1.30;0.70;;;;;;;12.44;87.82;99587.69;4918430;29;20692;-69
2023/12/29 01:51:24;;;;;;;0.68;0.63;;;;;;;12.49;88.15;99575.69;4892974;29;20122;-69
2023/12/29 01:53:51;;;;;;;1.00;0.90;;;;;;;12.64;86.90;99569.03;4917252;29;21102;-69
2023/12/29 01:56:16;;;;;;;4.03;0.70;;;;;;;12.63;86.50;99562.13;4918433;29;20064;-70
2023/12/29 01:58:43;;;;;;;1.33;0.70;;;;;;;12.50;87.48;99553.69;4918627;29;20035;-70
2023/12/29 02:01:10;;;;;;;1.80;1.30;;;;;;;12.49;86.40;99554.88;4918915;29;20044;-71
2023/12/29 02:03:36;;;;;;;0.77;0.73;;;;;;;12.55;86.93;99560.63;4919030;29;20098;-70
2023/12/29 02:06:01;;;;;;;0.70;0.70;;;;;;;12.62;87.84;99547.84;4897620;29;20027;-70
2023/12/29 02:08:28;;;;;;;1.30;0.70;;;;;;;12.60;87.86;99558.25;4918468;29;20032;-70
2023/12/29 02:10:53;;;;;;;0.80;0.80;;;;;;;12.55;88.55;99547.09;4919712;29;20423;-70
2023/12/29 02:13:21;;;;;;;2.53;0.77;;;;;;;12.55;88.24;99541.72;4917986;29;20032;-70
2023/12/29 02:15:47;;;;;;;0.52;0.50;;;;;;;12.49;88.71;99543.28;4918099;29;20043;-70
2023/12/29 02:18:16;;;;;;;1.45;0.68;;;;;;;12.36;88.86;99542.97;4902265;29;20039;-70
2023/12/29 02:20:42;;;;;;;0.70;0.65;;;;;;;12.31;88.94;99529.88;4919290;29;20095;-70
2023/12/29 02:23:10;;;;;;;6.53;0.80;;;;;;;12.38;88.68;99540.66;4915139;29;20479;-70
2023/12/29 02:25:36;;;;;;;0.70;0.63;;;;;;;12.43;89.67;99544.84;4915366;29;20598;-70
2023/12/29 02:28:11;;;;;;;0.73;0.63;;;;;;;12.48;88.76;99539.06;4919706;29;20035;-70
2023/12/29 02:30:49;;;;;;;2.53;1.05;;;;;;;12.52;88.73;99526.31;4917761;29;20053;-69
2023/12/29 02:33:19;;;;;;;0.52;0.40;;;;;;;12.49;88.42;99532.47;4923697;29;20106;-70
2023/12/29 02:35:48;;;;;;;1.30;0.60;;;;;;;12.49;88.06;99519.75;4938581;28;20956;-70
2023/12/29 02:38:15;;;;;;;0.65;0.65;;;;;;;12.55;87.86;99520.88;4914986;29;20083;-69
2023/12/29 02:40:40;;;;;;;3.80;1.65;;;;;;;12.57;88.05;99502.34;4925845;29;20495;-70
2023/12/29 02:43:06;;;;;;;1.45;0.40;;;;;;;12.64;87.44;99502.28;4942382;29;20082;-70
2023/12/29 02:45:31;;;;;;;0.60;0.60;;;;;;;12.53;87.81;99496.19;4929491;29;20046;-70
2023/12/29 02:47:57;;;;;;;0.80;0.80;;;;;;;12.36;87.43;99494.38;4930493;29;20020;-70
2023/12/29 02:50:23;;;;;;;1.70;0.93;;;;;;;12.53;87.73;99503.53;4956313;28;20042;-70
2023/12/29 02:52:48;;;;;;;0.50;0.50;;;;;;;12.39;87.75;99506.31;4933928;28;20043;-70
2023/12/29 02:55:14;;;;;;;0.65;0.60;;;;;;;12.59;87.32;99488.44;4927060;29;20043;-69
2023/12/29 02:57:39;;;;;;;1.45;0.65;;;;;;;12.56;87.93;99490.00;4930275;29;20043;-70
2023/12/29 03:00:06;;;;;;;0.98;0.68;;;;;;;12.51;87.69;99479.63;4927606;29;20161;-70
2023/12/29 03:02:32;;;;;;;3.20;1.20;;;;;;;12.62;86.96;99488.41;4930341;29;20043;-70
2023/12/29 03:04:58;;;;;;;2.05;0.63;;;;;;;12.31;87.42;99480.53;4930217;29;20031;-69
2023/12/29 03:07:23;;;;;;;1.67;0.85;;;;;;;12.53;87.79;99477.28;4932683;29;20058;-70
2023/12/29 03:09:49;;;;;;;0.68;0.60;;;;;;;12.53;87.48;99469.19;4930606;28;20033;-70
2023/12/29 03:12:14;;;;;;;0.55;0.55;;;;;;;12.61;86.42;99461.81;4930629;29;20036;-70
2023/12/29 03:14:40;;;;;;;3.83;0.70;;;;;;;12.66;85.90;99467.53;4930910;29;20052;-70
2023/12/29 03:17:05;;;;;;;0.70;0.70;;;;;;;12.60;86.19;99474.53;4919304;29;20070;-70
2023/12/29 03:19:31;;;;;;;1.85;0.47;;;;;;;12.54;86.73;99476.13;4914616;29;20418;-69
2023/12/29 03:21:56;;;;;;;0.63;0.63;;;;;;;12.27;87.56;99467.03;4916300;29;20622;-70
2023/12/29 03:24:22;;;;;;;9.63;1.27;;;;;;;12.41;87.34;99476.97;4917930;29;20035;-70
2023/12/29 03:26:47;;;;;;;1.85;0.77;;;;;;;12.31;87.93;99465.09;4944928;29;20091;-69
2023/12/29 03:29:13;;;;;;;0.68;0.40;;;;;;;12.32;87.62;99449.66;4930852;29;20127;-70
2023/12/29 03:31:39;;;;;;;0.38;0.38;;;;;;;12.30;88.01;99454.69;4923459;29;20042;-70
2023/12/29 03:34:05;;;;;;;0.20;0.20;;;;;;;12.42;87.03;99459.63;4927627;29;20032;-70
2023/12/29 03:36:34;;;;;;;0.50;0.38;;;;;;;12.47;87.98;99449.19;4917181;29;20307;-69
2023/12/29 03:39:00;;;;;;;2.65;0.90;;;;;;;12.41;87.65;99453.47;4911304;29;20032;-70
2023/12/29 03:41:27;;;;;;;4.03;0.40;;;;;;;12.45;87.22;99448.81;4918609;29;20708;-70
2023/12/29 03:43:52;;;;;;;0.80;0.50;;;;;;;12.33;88.28;99449.25;4906566;29;20044;-70
2023/12/29 03:46:19;;;;;;;0.47;0.43;;;;;;;12.27;89.39;99428.50;4927358;29;20084;-70
2023/12/29 03:48:45;;;;;;;0.32;0.32;;;;;;;12.31;88.90;99435.38;4930734;29;20349;-70
2023/12/29 03:51:10;;;;;;;1.08;0.43;;;;;;;12.21;89.32;99421.97;4928910;29;20043;-70
2023/12/29 03:53:36;;;;;;;1.02;0.30;;;;;;;12.19;90.24;99422.38;4927080;29;20036;-70
2023/12/29 03:56:06;;;;;;;1.10;0.40;;;;;;;12.11;90.67;99423.59;4929214;29;20035;-70
2023/12/29 03:58:32;;;;;;;0.50;0.40;;;;;;;12.18;90.51;99431.63;4931567;29;20451;-70
2023/12/29 04:00:57;;;;;;;0.50;0.50;;;;;;;12.28;90.24;99425.41;4931462;29;20067;-70
2023/12/29 04:03:23;;;;;;;0.40;0.38;;;;;;;12.24;89.98;99430.06;4916310;29;20130;-70
2023/12/29 04:05:48;;;;;;;0.50;0.38;;;;;;;12.28;89.58;99436.19;4931409;29;20514;-70
2023/12/29 04:08:13;;;;;;;0.88;0.50;;;;;;;12.23;89.76;99450.09;4895477;29;20335;-69
2023/12/29 04:10:39;;;;;;;0.30;0.30;;;;;;;12.09;91.09;99469.09;4908851;29;20122;-70
2023/12/29 04:13:04;;;;;;;0.95;0.65;;;;;;;12.14;92.07;99470.59;4917296;29;20114;-70
2023/12/29 04:15:30;;;;;;;1.20;0.35;;;;;;;11.87;94.85;99483.81;4917757;29;20032;-70
2023/12/29 04:17:56;;;;;;;1.05;0.60;;;;;;;11.92;96.31;99498.84;4929636;29;20028;-70
2023/12/29 04:20:21;;;;;;;0.63;0.50;;;;;;;11.69;96.79;99507.41;4930360;29;20395;-70
2023/12/29 04:22:47;;;;;;;2.08;0.47;;;;;;;11.28;97.80;99527.88;4927842;29;20079;-70
2023/12/29 04:25:12;;;;;;;0.45;0.45;;;;;;;10.93;99.34;99517.88;4927552;29;20044;-70
2023/12/29 04:27:38;;;;;;;0.20;0.20;;;;;;;11.17;99.23;99527.13;4927436;29;20036;-70
2023/12/29 04:30:05;;;;;;;0.30;0.30;;;;;;;11.10;98.54;99541.34;4927868;29;20455;-70
2023/12/29 04:32:30;;;;;;;4.05;0.50;;;;;;;10.75;100.00;99541.31;4914534;29;20051;-70
2023/12/29 04:34:56;;;;;;;0.45;0.30;;;;;;;10.74;99.31;99545.19;4922787;29;20027;-70
2023/12/29 04:37:21;;;;;;;0.82;0.30;;;;;;;10.86;99.39;99545.56;4918113;29;20042;-70
2023/12/29 04:39:47;;;;;;;0.30;0.30;;;;;;;10.68;99.99;99535.94;4917588;29;20043;-70
2023/12/29 04:42:12;;;;;;;0.20;0.20;;;;;;;10.69;97.84;99503.25;4893790;29;20040;-70
2023/12/29 04:44:38;;;;;;;1.52;0.50;;;;;;;10.48;98.98;99499.75;4925160;29;20067;-70
2023/12/29 04:47:03;;;;;;;0.20;0.20;;;;;;;10.66;97.43;99479.00;4930060;29;20055;-71
2023/12/29 04:49:29;;;;;;;0.50;0.25;;;;;;;10.28;96.42;99474.34;4929386;29;20057;-70
2023/12/29 04:51:54;;;;;;;0.25;0.25;;;;;;;10.38;95.92;99487.03;4928934;29;20028;-70
2023/12/29 04:54:20;;;;;;;0.20;0.20;;;;;;;10.47;94.86;99493.59;4929533;29;20032;-70
2023/12/29 04:56:45;;;;;;;0.40;0.30;;;;;;;10.43;94.09;99492.81;4929842;29;20094;-70
2023/12/29 04:59:11;;;;;;;0.30;0.10;;;;;;;10.50;93.75;99495.53;4933579;29;20055;-70
2023/12/29 05:01:36;;;;;;;0.20;0.20;;;;;;;10.59;93.25;99498.59;4932641;29;20114;-70
2023/12/29 05:04:02;;;;;;;1.48;0.30;;;;;;;10.49;93.34;99522.84;4935590;29;20028;-70
2023/12/29 05:06:27;;;;;;;0.40;0.30;;;;;;;10.44;93.45;99507.03;4935573;29;20028;-70
2023/12/29 05:08:52;;;;;;;0.20;0.20;;;;;;;10.48;93.94;99503.22;4933656;29;20447;-70
2023/12/29 05:11:18;;;;;;;0.80;0.30;;;;;;;10.55;92.42;99505.91;4936645;29;20114;-70
2023/12/29 05:13:44;;;;;;;0.20;0.20;;;;;;;10.50;93.05;99492.84;4935947;29;20028;-70
2023/12/29 05:16:09;;;;;;;0.52;0.25;;;;;;;10.27;93.80;99487.03;4933252;29;20430;-69
2023/12/29 05:18:35;;;;;;;0.20;0.20;;;;;;;10.05;95.61;99488.06;4933685;29;20047;-70
2023/12/29 05:21:01;;;;;;;0.55;0.20;;;;;;;10.26;94.65;99484.72;4934659;29;21277;-72
2023/12/29 05:23:26;;;;;;;0.30;0.30;;;;;;;10.30;94.67;99482.81;4933112;29;20118;-70
2023/12/29 05:25:51;;;;;;;0.40;0.40;;;;;;;10.39;94.68;99472.44;4932182;29;20400;-70
2023/12/29 05:28:17;;;;;;;0.50;0.50;;;;;;;10.40;94.52;99477.44;4931207;29;20039;-70
2023/12/29 05:30:42;;;;;;;0.10;0.10;;;;;;;10.37;93.99;99472.84;4933719;29;20409;-70
2023/12/29 05:33:08;;;;;;;0.28;0.20;;;;;;;10.47;94.03;99463.22;4929397;29;20035;-70
2023/12/29 05:35:33;;;;;;;0.10;0.10;;;;;;;10.48;94.52;99452.06;4923582;29;20043;-70
2023/12/29 05:37:59;;;;;;;1.48;0.65;;;;;;;10.39;95.00;99473.22;4904171;29;20034;-70
2023/12/29 05:40:24;;;;;;;0.20;0.20;;;;;;;10.47;94.92;99461.28;4926188;29;20495;-70
2023/12/29 05:42:50;;;;;;;0.20;0.20;;;;;;;10.54;94.69;99474.00;4930863;29;20048;-70
2023/12/29 05:45:18;;;;;;;2.75;0.22;;;;;;;10.44;94.88;99472.84;4936488;29;20067;-70
2023/12/29 05:47:44;;;;;;;0.60;0.25;;;;;;;10.41;95.24;99478.22;4947263;28;20036;-70
2023/12/29 05:50:09;;;;;;;0.25;0.25;;;;;;;10.44;96.11;99466.66;4937596;29;20079;-70
2023/12/29 05:52:34;;;;;;;0.28;0.28;;;;;;;10.46;95.95;99470.53;4935794;29;20031;-70
2023/12/29 05:55:00;;;;;;;0.75;0.63;;;;;;;10.51;96.00;99480.16;4932540;29;20039;-71
2023/12/29 05:57:25;;;;;;;1.65;0.35;;;;;;;10.38;96.23;99489.72;4920210;29;20090;-70
2023/12/29 05:59:51;;;;;;;1.10;0.40;;;;;;;10.57;95.94;99475.91;4935229;29;20056;-70
2023/12/29 06:02:16;;;;;;;2.63;0.20;;;;;;;10.55;96.19;99476.31;4915950;29;20031;-70
2023/12/29 06:04:42;;;;;;;0.10;0.10;;;;;;;10.58;96.49;99475.56;4936430;29;20039;-70
2023/12/29 06:07:07;;;;;;;0.40;0.40;;;;;;;10.68;95.87;99482.84;4933496;29;20035;-70
2023/12/29 06:09:33;;;;;;;0.13;0.13;;;;;;;10.65;95.32;99475.53;4930701;29;20048;-70
2023/12/29 06:11:58;;;;;;;0.52;0.22;;;;;;;10.72;95.58;99466.72;4924727;29;20028;-71
2023/12/29 06:14:23;;;;;;;0.20;0.20;;;;;;;10.65;96.95;99474.75;4927014;29;20043;-70
2023/12/29 06:16:49;;;;;;;1.27;0.32;;;;;;;10.52;97.69;99479.78;4930846;29;20601;-70
2023/12/29 06:19:14;;;;;;;0.47;0.38;;;;;;;10.68;97.65;99487.47;4919816;29;20156;-70
2023/12/29 06:21:42;;;;;;;0.45;0.32;;;;;;;10.69;97.07;99489.00;4918185;29;20056;-70
2023/12/29 06:24:08;;;;;;;0.30;0.30;;;;;;;10.62;98.35;99486.31;4942506;28;20051;-70
2023/12/29 06:26:33;;;;;;;0.38;0.38;;;;;;;10.76;97.33;99483.63;4920325;29;20038;-70
2023/12/29 06:28:59;;;;;;;1.55;0.50;;;;;;;10.70;97.14;99494.00;4931165;29;20050;-70
2023/12/29 06:31:24;;;;;;;0.20;0.20;;;;;;;10.68;97.41;99492.88;4929758;29;20039;-70
2023/12/29 06:33:50;;;;;;;0.20;0.20;;;;;;;10.77;97.69;99499.41;4924479;29;20110;-70
2023/12/29 06:36:15;;;;;;;0.30;0.30;;;;;;;10.88;97.23;99508.25;4920192;29;22064;-70
2023/12/29 06:38:41;;;;;;;0.40;0.30;;;;;;;10.88;96.25;99513.63;4917762;29;20069;-69
2023/12/29 06:41:06;;;;;;;0.30;0.30;;;;;;;10.72;97.45;99510.53;4918933;29;20039;-69
2023/12/29 06:43:32;;;;;;;2.50;0.40;;;;;;;10.79;97.50;99504.41;4918780;29;20051;-71
2023/12/29 06:45:57;;;;;;;2.70;0.70;;;;;;;10.80;97.68;99503.25;4929933;29;20039;-70
2023/12/29 06:48:23;;;;;;;1.23;0.47;;;;;;;10.86;97.03;99505.16;4929799;29;20035;-71
2023/12/29 06:50:49;;;;;;;0.63;0.55;;;;;;;10.98;96.40;99508.63;4929268;29;20027;-70
2023/12/29 06:53:14;;;;;;;0.25;0.22;;;;;;;10.94;96.46;99521.34;4930100;29;20038;-70
2023/12/29 06:55:40;;;;;;;6.38;0.55;;;;;;;10.91;97.53;99530.97;4924584;29;20064;-70
2023/12/29 06:58:05;;;;;;;0.40;0.40;;;;;;;10.80;97.68;99516.72;4908536;29;20411;-70
2023/12/29 07:00:31;;;;;;;1.27;0.40;;;;;;;10.77;98.45;99512.88;4928848;29;20039;-70
2023/12/29 07:02:56;;;;;;;2.38;0.40;;;;;;;10.75;97.57;99520.56;4929998;28;20039;-70
2023/12/29 07:05:22;;;;;;;0.50;0.45;;;;;;;10.77;97.21;99520.94;4929315;29;20048;-70
2023/12/29 07:07:48;;;;;;;0.28;0.28;;;;;;;10.69;97.21;99524.78;4915553;29;20071;-70
2023/12/29 07:10:13;;;;;;;0.20;0.20;;;;;;;10.69;97.48;99505.94;4913240;29;20480;-70
2023/12/29 07:12:40;;;;;;;2.67;0.82;;;;;;;10.64;97.84;99505.53;4927087;29;20028;-70
2023/12/29 07:15:06;;;;;;;0.68;0.40;;;;;;;10.72;97.19;99509.78;4926765;29;20036;-70
2023/12/29 07:17:32;;;;;;;0.57;0.50;;;;;;;10.51;98.28;99499.75;4927635;29;20040;-69
2023/12/29 07:19:58;;;;;;;0.28;0.28;;;;;;;10.70;97.03;99512.09;4929792;29;20499;-70
2023/12/29 07:22:24;;;;;;;0.75;0.60;;;;;;;10.74;97.68;99512.88;4909425;29;20036;-70
2023/12/29 07:24:50;;;;;;;0.52;0.52;;;;;;;10.77;97.07;99507.47;4928535;29;20057;-70
2023/12/29 07:27:15;;;;;;;0.50;0.50;;;;;;;10.77;96.76;99506.72;4927104;29;20486;-70
2023/12/29 07:29:41;;;;;;;5.28;1.05;;;;;;;10.77;97.82;99506.72;4927808;29;20044;-70
2023/12/29 07:32:06;;;;;;;3.35;0.90;;;;;;;10.70;97.83;99504.75;4910261;29;20067;-69
2023/12/29 07:34:32;;;;;;;0.75;0.63;;;;;;;10.70;97.47;99504.75;4916792;29;20055;-70
2023/12/29 07:36:58;;;;;;;1.80;0.80;;;;;;;10.81;96.98;99497.47;4919844;29;20128;-70
2023/12/29 07:39:24;;;;;;;3.20;0.30;;;;;;;10.86;97.13;99507.09;4943368;28;20052;-70
2023/12/29 07:41:51;;;;;;;3.40;0.60;;;;;;;10.79;97.10;99486.31;4924067;29;20134;-70
2023/12/29 07:44:17;;;;;;;0.57;0.57;;;;;;;10.81;97.76;99481.31;4914128;29;20131;-70
2023/12/29 07:46:44;;;;;;;0.55;0.52;;;;;;;10.76;97.69;99481.69;4924558;29;20035;-70
2023/12/29 07:49:09;;;;;;;4.22;1.45;;;;;;;10.79;97.19;99497.09;4916379;29;20040;-70
2023/12/29 07:51:40;;;;;;;0.55;0.55;;;;;;;10.89;97.69;99501.72;4917316;29;20038;-70
2023/12/29 07:54:06;;;;;;;0.47;0.43;;;;;;;11.01;96.95;99497.88;4916607;29;20043;-70
2023/12/29 07:56:31;;;;;;;1.15;0.38;;;;;;;11.04;96.89;99501.69;4923764;29;20042;-70
2023/12/29 07:58:57;;;;;;;8.55;0.80;;;;;;;10.98;96.45;99511.31;4928937;29;20035;-70
2023/12/29 08:01:22;;;;;;;1.48;0.68;;;;;;;10.96;97.06;99510.94;4918860;29;20040;-70
2023/12/29 08:03:48;;;;;;;1.50;0.80;;;;;;;10.92;97.48;99510.19;4916401;29;20070;-70
2023/12/29 08:06:13;;;;;;;0.68;0.63;;;;;;;11.12;96.96;99505.94;4916737;29;20043;-70
2023/12/29 08:08:39;;;;;;;0.30;0.30;;;;;;;11.01;96.77;99502.47;4917887;29;20082;-70
2023/12/29 08:11:04;;;;;;;7.28;0.77;;;;;;;10.99;96.77;99508.25;4922973;29;20117;-70
2023/12/29 08:13:30;;;;;;;1.38;0.75;;;;;;;11.04;97.00;99509.78;4927720;29;20470;-70
2023/12/29 08:15:55;;;;;;;3.05;0.68;;;;;;;11.05;96.93;99506.72;4921863;29;20035;-70
2023/12/29 08:18:20;;;;;;;1.67;0.88;;;;;;;11.15;95.78;99515.94;4925464;28;20043;-70
2023/12/29 08:20:46;;;;;;;3.35;0.45;;;;;;;11.20;96.49;99496.69;4908461;29;20032;-70
2023/12/29 08:23:11;;;;;;;1.23;0.77;;;;;;;11.22;96.41;99500.53;4915867;29;20035;-69
2023/12/29 08:25:37;;;;;;;9.48;0.68;;;;;;;11.26;95.53;99500.53;4917437;29;20546;-69
2023/12/29 08:28:02;;;;;;;1.23;0.80;;;;;;;11.27;95.58;99502.06;4898587;29;20035;-69
2023/12/29 08:30:28;;;;;;;0.57;0.55;;;;;;;11.29;95.16;99497.84;4926398;29;20059;-69
2023/12/29 08:32:53;;;;;;;0.80;0.68;;;;;;;11.24;95.93;99514.41;4911198;29;20038;-69
2023/12/29 08:35:20;;;;;;;4.03;1.20;;;;;;;11.30;95.18;99506.69;4925265;29;20040;-68
2023/12/29 08:37:45;;;;;;;0.57;0.52;;;;;;;11.31;94.10;99509.00;4925853;29;20608;-69
2023/12/29 08:40:11;;;;;;;3.25;0.88;;;;;;;11.30;94.28;99518.25;4925546;29;20043;-69
2023/12/29 08:42:37;;;;;;;6.20;1.77;;;;;;;11.34;94.18;99518.25;4926475;29;20037;-69
2023/12/29 08:45:03;;;;;;;0.90;0.63;;;;;;;11.44;93.10;99525.53;4928038;29;20110;-69
2023/12/29 08:47:29;;;;;;;2.70;1.10;;;;;;;11.41;92.68;99518.22;4928406;29;20054;-70
2023/12/29 08:49:54;;;;;;;2.17;0.70;;;;;;;11.45;92.75;99519.75;4925215;29;20028;-70
2023/12/29 08:52:20;;;;;;;0.75;0.55;;;;;;;11.46;93.75;99515.13;4922044;29;20024;-69
2023/12/29 08:54:46;;;;;;;1.08;0.65;;;;;;;11.57;93.00;99516.66;4921623;29;20066;-72
2023/12/29 08:57:11;;;;;;;0.40;0.40;;;;;;;11.55;93.29;99537.06;4920158;29;20086;-69
2023/12/29 08:59:37;;;;;;;3.38;1.67;;;;;;;11.66;92.48;99529.75;4923770;29;20119;-69
2023/12/29 09:02:03;;;;;;;4.65;1.48;;;;;;;11.69;92.45;99516.25;4931122;29;20031;-69
2023/12/29 09:04:28;;;;;;;0.68;0.68;;;;;;;11.70;92.26;99519.72;4931350;29;20044;-69
2023/12/29 09:06:54;;;;;;;1.27;0.57;;;;;;;11.73;92.30;99525.09;4934323;29;20040;-69
2023/12/29 09:09:20;;;;;;;0.45;0.45;;;;;;;11.73;91.96;99524.31;4932322;29;20119;-70
2023/12/29 09:11:46;;;;;;;1.20;0.70;;;;;;;11.74;92.05;99523.97;4927244;29;20031;-69
2023/12/29 09:14:11;;;;;;;3.10;0.80;;;;;;;11.86;92.74;99519.28;4933262;29;20413;-69
2023/12/29 09:16:37;;;;;;;3.13;0.80;;;;;;;11.93;92.73;99520.03;4931146;29;20043;-69
2023/12/29 09:19:02;;;;;;;2.10;0.80;;;;;;;11.99;91.59;99517.69;4927330;29;20038;-69
2023/12/29 09:21:28;;;;;;;3.70;0.88;;;;;;;12.02;90.71;99501.47;4930505;29;20028;-70
2023/12/29 09:23:53;;;;;;;1.70;0.68;;;;;;;11.98;90.74;99491.88;4928143;29;20031;-69
2023/12/29 09:26:19;;;;;;;2.75;0.70;;;;;;;11.88;91.97;99484.59;4927582;29;20023;-69
2023/12/29 09:28:44;;;;;;;0.82;0.40;;;;;;;11.90;91.89;99493.84;4929204;29;20035;-69
2023/12/29 09:31:10;;;;;;;1.73;0.65;;;;;;;11.78;92.11;99494.28;4920131;29;20458;-69
2023/12/29 09:33:36;;;;;;;3.20;0.35;;;;;;;11.59;94.06;99497.38;4917807;29;20070;-69
2023/12/29 09:36:02;;;;;;;1.85;0.75;;;;;;;11.63;93.53;99508.94;4918715;29;20055;-69
2023/12/29 09:38:28;;;;;;;3.80;0.75;;;;;;;11.67;91.81;99478.13;4919675;29;20040;-69
2023/12/29 09:40:58;;;;;;;1.55;0.90;;;;;;;11.59;91.18;99497.38;4920347;29;20035;-69
2023/12/29 09:43:25;;;;;;;0.30;0.30;;;;;;;11.44;92.75;99533.63;4925963;29;20042;-69
2023/12/29 09:45:52;;;;;;;4.90;0.40;;;;;;;11.41;93.03;99534.38;4923830;29;20608;-69
2023/12/29 09:48:20;;;;;;;0.32;0.32;;;;;;;11.10;93.55;99543.28;4921927;29;21600;-69
2023/12/29 09:50:46;;;;;;;0.35;0.35;;;;;;;10.20;100.00;99589.22;4912423;29;20040;-69
2023/12/29 09:53:13;;;;;;;0.95;0.55;;;;;;;10.46;100.00;99578.19;4920465;29;20542;-70
2023/12/29 09:55:40;;;;;;;0.30;0.22;;;;;;;10.40;100.00;99582.41;4924260;29;20463;-70
2023/12/29 09:58:07;;;;;;;0.40;0.40;;;;;;;10.64;98.52;99551.31;4922841;29;20056;-70
2023/12/29 10:00:33;;;;;;;0.25;0.25;;;;;;;10.46;100.00;99548.59;4919427;29;20385;-70
2023/12/29 10:03:00;;;;;;;1.05;0.47;;;;;;;10.52;100.00;99540.91;4915509;29;20060;-70
2023/12/29 10:05:26;;;;;;;0.57;0.57;;;;;;;10.65;98.97;99556.31;4933662;29;20044;-70
2023/12/29 10:07:52;;;;;;;2.90;0.63;;;;;;;10.62;99.11;99549.00;4918220;29;20042;-70
2023/12/29 10:10:22;;;;;;;4.72;0.32;;;;;;;10.47;100.00;99554.75;4918300;29;20126;-69
2023/12/29 10:12:49;;;;;;;0.40;0.40;;;;;;;10.68;99.26;99546.72;4912817;29;20035;-69
2023/12/29 10:15:40;;;;;;;5.32;0.80;;;;;;;10.73;100.00;99547.09;4916824;29;20027;-69
2023/12/29 10:18:10;;;;;;;1.40;0.68;;;;;;;10.96;97.40;99551.34;4919012;29;20043;-70
2023/12/29 10:20:47;;;;;;;2.58;0.38;;;;;;;11.03;96.47;99545.97;4920640;29;20710;-69
2023/12/29 10:23:41;;;;;;;2.38;1.30;;;;;;;10.84;97.25;99542.47;4917201;29;20043;-70
2023/12/29 10:26:10;;;;;;;2.42;0.50;;;;;;;10.56;98.99;99537.06;4899258;29;20062;-70
2023/12/29 10:28:35;;;;;;;1.75;0.47;;;;;;;10.81;98.16;99537.88;4916381;29;20241;-70
2023/12/29 10:31:02;;;;;;;0.20;0.20;;;;;;;10.86;98.18;99540.19;4909304;29;20035;-69
2023/12/29 10:33:30;;;;;;;4.40;0.32;;;;;;;10.90;97.89;99537.50;4934673;28;20034;-70
2023/12/29 10:36:02;;;;;;;2.83;0.45;;;;;;;10.97;96.79;99542.13;4926480;29;20118;-70
2023/12/29 10:38:28;;;;;;;1.20;0.60;;;;;;;10.95;96.17;99539.81;4930461;29;20039;-70
2023/12/29 10:40:53;;;;;;;0.30;0.30;;;;;;;10.98;96.06;99541.72;4929740;29;20046;-70
2023/12/29 10:43:23;;;;;;;0.50;0.30;;;;;;;11.09;95.49;99547.13;4928767;29;20052;-70
2023/12/29 10:45:49;;;;;;;3.08;0.40;;;;;;;10.87;96.40;99546.34;4927556;29;20119;-70
2023/12/29 10:48:24;;;;;;;7.50;0.93;;;;;;;10.91;96.44;99539.03;4929677;29;20566;-70
2023/12/29 10:50:49;;;;;;;0.98;0.45;;;;;;;10.96;95.98;99540.56;4930706;29;20035;-70
2023/12/29 10:53:18;;;;;;;0.95;0.52;;;;;;;11.08;95.17;99538.28;4932828;29;20123;-70
2023/12/29 10:55:44;;;;;;;0.70;0.28;;;;;;;11.08;95.19;99554.44;4926545;29;20039;-70
2023/12/29 10:58:09;;;;;;;2.60;1.30;;;;;;;11.06;94.75;99545.19;4927808;29;20038;-70
2023/12/29 11:00:35;;;;;;;0.40;0.30;;;;;;;11.10;94.65;99551.34;4925664;29;20090;-70
2023/12/29 11:03:01;;;;;;;0.30;0.30;;;;;;;11.14;94.10;99552.13;4926314;29;20038;-70
2023/12/29 11:05:27;;;;;;;0.40;0.40;;;;;;;11.13;95.16;99547.91;4925516;29;20115;-70
2023/12/29 11:07:54;;;;;;;0.63;0.40;;;;;;;11.15;95.13;99534.81;4932102;29;20503;-70
2023/12/29 11:10:21;;;;;;;0.93;0.43;;;;;;;11.29;94.90;99535.56;4931603;29;20412;-70
2023/12/29 11:12:48;;;;;;;0.32;0.32;;;;;;;11.28;95.05;99534.03;4929403;29;20036;-70
2023/12/29 11:15:15;;;;;;;1.92;0.60;;;;;;;11.37;94.42;99537.09;4931829;29;20038;-70
2023/12/29 11:17:49;;;;;;;0.95;0.50;;;;;;;11.37;94.19;99522.84;4931999;29;20406;-70
2023/12/29 11:20:16;;;;;;;3.03;0.50;;;;;;;11.44;94.13;99522.84;4927872;29;20411;-70
2023/12/29 11:22:43;;;;;;;0.75;0.60;;;;;;;11.52;93.40;99513.56;4925116;29;20031;-70
2023/12/29 11:25:09;;;;;;;0.20;0.20;;;;;;;11.54;93.55;99519.34;4927777;29;20040;-70
2023/12/29 11:27:35;;;;;;;0.63;0.30;;;;;;;11.52;94.32;99522.44;4927066;29;20041;-70
2023/12/29 11:30:04;;;;;;;1.65;1.05;;;;;;;11.62;93.54;99518.16;4942016;29;20036;-70